Time;durP1;ratioP1;P1;durP2;ratioP2;P2;SDS_P1;SDS_P2;PMS_P1;PMS_P2;Temp;Humidity;BMP_temperature;BMP_pressure;BME280_temperature;BME280_humidity;BME280_pressure;Samples;Min_cycle;Max_cycle;Signal;HPM_P1;HPM_P2
2022/04/29 00:00:46;;;;;;;13.07;7.10;;;;;;;;;;5060242;28;20025;-80
2022/04/29 00:03:13;;;;;;;12.98;7.05;;;;;;;;;;5060335;28;20029;-79
2022/04/29 00:05:41;;;;;;;11.73;6.75;;;;;;;;;;5059220;28;20401;-79
2022/04/29 00:08:08;;;;;;;9.57;7.00;;;;;;;;;;5060689;28;20025;-79
2022/04/29 00:10:34;;;;;;;10.15;6.72;;;;;;;;;;5062207;28;20032;-78
2022/04/29 00:13:01;;;;;;;13.45;6.80;;;;;;;;;;5063085;28;20017;-78
2022/04/29 00:15:27;;;;;;;9.63;6.13;;;;;;;;;;5062259;28;20059;-77
2022/04/29 00:17:53;;;;;;;9.77;6.43;;;;;;;;;;5061711;28;20115;-77
2022/04/29 00:20:18;;;;;;;16.05;6.18;;;;;;;;;;5060061;28;20055;-77
2022/04/29 00:22:44;;;;;;;11.15;6.20;;;;;;;;;;5060120;28;20033;-76
2022/04/29 00:25:10;;;;;;;14.10;7.07;;;;;;;;;;5060661;28;20044;-77
2022/04/29 00:27:36;;;;;;;11.23;6.47;;;;;;;;;;5061094;28;20021;-77
2022/04/29 00:30:04;;;;;;;11.32;6.47;;;;;;;;;;5061009;28;20040;-77
2022/04/29 00:32:29;;;;;;;11.52;7.28;;;;;;;;;;5060261;28;20490;-78
2022/04/29 00:34:54;;;;;;;8.47;6.30;;;;;;;;;;5056356;28;20033;-78
2022/04/29 00:37:20;;;;;;;12.03;6.83;;;;;;;;;;5056212;28;20261;-78
2022/04/29 00:39:45;;;;;;;9.98;6.60;;;;;;;;;;5054888;28;20266;-78
2022/04/29 00:42:16;;;;;;;11.55;6.95;;;;;;;;;;5056270;28;20538;-78
2022/04/29 00:44:43;;;;;;;10.13;7.18;;;;;;;;;;5058006;28;20043;-79
2022/04/29 00:47:10;;;;;;;10.30;7.45;;;;;;;;;;5057538;28;20070;-79
2022/04/29 00:49:35;;;;;;;10.05;7.15;;;;;;;;;;5058199;28;20025;-79
2022/04/29 00:52:00;;;;;;;11.93;7.50;;;;;;;;;;5058109;28;20489;-78
2022/04/29 00:54:34;;;;;;;12.25;6.78;;;;;;;;;;5057227;28;20040;-79
2022/04/29 00:57:00;;;;;;;12.50;7.05;;;;;;;;;;5057600;28;20036;-79
2022/04/29 00:59:42;;;;;;;13.20;7.10;;;;;;;;;;5058600;28;20037;-79
2022/04/29 01:02:08;;;;;;;12.38;7.53;;;;;;;;;;5057952;28;20029;-79
2022/04/29 01:04:43;;;;;;;13.20;7.15;;;;;;;;;;5058513;28;20407;-79
2022/04/29 01:07:09;;;;;;;12.15;6.68;;;;;;;;;;5056732;28;20025;-79
2022/04/29 01:09:34;;;;;;;10.10;6.82;;;;;;;;;;5057873;28;20089;-79
2022/04/29 01:11:59;;;;;;;13.68;6.82;;;;;;;;;;5056710;28;20025;-79
2022/04/29 01:14:24;;;;;;;16.53;6.97;;;;;;;;;;5057729;28;20394;-79
2022/04/29 01:16:50;;;;;;;11.65;7.18;;;;;;;;;;5058415;28;20588;-79
2022/04/29 01:19:15;;;;;;;10.13;6.75;;;;;;;;;;5056605;28;20083;-79
2022/04/29 01:21:41;;;;;;;9.13;6.57;;;;;;;;;;5057697;28;20020;-81
2022/04/29 01:24:08;;;;;;;9.50;6.78;;;;;;;;;;5056888;28;20029;-79
2022/04/29 01:26:34;;;;;;;12.23;6.90;;;;;;;;;;5057491;28;20075;-79
2022/04/29 01:29:01;;;;;;;12.15;6.68;;;;;;;;;;5057295;28;20025;-79
2022/04/29 01:31:27;;;;;;;9.18;7.00;;;;;;;;;;5056420;28;20028;-79
2022/04/29 01:33:53;;;;;;;12.77;7.00;;;;;;;;;;5056644;28;20024;-79
2022/04/29 01:36:19;;;;;;;10.43;6.75;;;;;;;;;;5056828;28;20417;-79
2022/04/29 01:38:44;;;;;;;12.17;7.23;;;;;;;;;;5055010;28;20021;-79
2022/04/29 01:41:09;;;;;;;10.32;6.95;;;;;;;;;;5056543;28;20268;-79
2022/04/29 01:43:35;;;;;;;11.95;7.53;;;;;;;;;;5057863;28;20433;-79
2022/04/29 01:46:01;;;;;;;12.43;7.13;;;;;;;;;;5055675;28;20025;-79
2022/04/29 01:48:27;;;;;;;12.98;7.28;;;;;;;;;;5057623;28;20036;-79
2022/04/29 01:50:53;;;;;;;10.75;6.60;;;;;;;;;;5057115;28;20047;-79
2022/04/29 01:53:19;;;;;;;10.32;6.75;;;;;;;;;;5057580;28;20025;-79
2022/04/29 01:55:44;;;;;;;12.60;7.22;;;;;;;;;;5055932;28;20028;-77
2022/04/29 01:58:09;;;;;;;14.27;8.25;;;;;;;;;;5053484;28;20024;-78
2022/04/29 02:00:35;;;;;;;15.45;8.02;;;;;;;;;;5054569;28;20478;-78
2022/04/29 02:03:00;;;;;;;16.52;9.15;;;;;;;;;;5054979;28;20029;-77
2022/04/29 02:05:26;;;;;;;17.20;8.52;;;;;;;;;;5054705;28;20025;-78
2022/04/29 02:07:51;;;;;;;12.48;7.00;;;;;;;;;;5054127;28;20032;-77
2022/04/29 02:10:17;;;;;;;12.52;7.63;;;;;;;;;;5054047;28;20497;-78
2022/04/29 02:12:42;;;;;;;19.50;8.23;;;;;;;;;;5054817;28;20070;-78
2022/04/29 02:15:08;;;;;;;15.35;8.30;;;;;;;;;;5057036;28;20020;-78
2022/04/29 02:17:33;;;;;;;14.40;7.93;;;;;;;;;;5056791;28;20029;-79
2022/04/29 02:19:59;;;;;;;14.80;8.27;;;;;;;;;;5056787;28;20101;-79
2022/04/29 02:22:24;;;;;;;13.32;7.82;;;;;;;;;;5055973;28;20029;-78
2022/04/29 02:24:49;;;;;;;12.27;7.93;;;;;;;;;;5055112;28;20025;-78
2022/04/29 02:27:15;;;;;;;11.00;7.65;;;;;;;;;;5054456;28;20128;-78
2022/04/29 02:29:40;;;;;;;12.90;7.63;;;;;;;;;;5054089;28;20028;-78
2022/04/29 02:32:06;;;;;;;10.45;7.57;;;;;;;;;;5054346;28;20067;-78
2022/04/29 02:34:31;;;;;;;11.98;7.72;;;;;;;;;;5052907;28;20025;-78
2022/04/29 02:36:56;;;;;;;12.40;8.30;;;;;;;;;;5052850;28;20049;-78
2022/04/29 02:39:21;;;;;;;15.43;8.63;;;;;;;;;;5053808;28;20484;-78
2022/04/29 02:41:47;;;;;;;15.48;8.07;;;;;;;;;;5054201;28;20753;-77
2022/04/29 02:44:13;;;;;;;17.95;10.18;;;;;;;;;;5054480;28;20447;-78
2022/04/29 02:49:23;;;;;;;;;;;;;;;;;;5058880;28;20150;-78
2022/04/29 02:51:48;;;;;;;11.07;7.32;;;;;;;;;;5058335;28;19923;-78
2022/04/29 02:54:14;;;;;;;13.45;7.95;;;;;;;;;;5058063;28;20025;-78
2022/04/29 02:56:39;;;;;;;13.77;7.03;;;;;;;;;;5059049;28;20029;-78
2022/04/29 02:59:04;;;;;;;13.90;7.53;;;;;;;;;;5059325;28;20403;-78
2022/04/29 03:01:30;;;;;;;12.00;7.93;;;;;;;;;;5059856;28;20091;-78
2022/04/29 03:03:55;;;;;;;13.48;7.80;;;;;;;;;;5059506;28;20265;-78
2022/04/29 03:06:20;;;;;;;13.15;7.38;;;;;;;;;;5058920;28;20029;-79
2022/04/29 03:08:45;;;;;;;14.27;7.43;;;;;;;;;;5060143;28;20025;-78
2022/04/29 03:11:11;;;;;;;12.40;7.53;;;;;;;;;;5058614;28;20364;-79
2022/04/29 03:13:36;;;;;;;10.85;7.72;;;;;;;;;;5059283;28;20290;-78
2022/04/29 03:16:01;;;;;;;14.60;8.00;;;;;;;;;;5057959;28;20116;-78
2022/04/29 03:18:26;;;;;;;14.37;8.13;;;;;;;;;;5056563;28;20298;-78
2022/04/29 03:20:56;;;;;;;13.73;9.00;;;;;;;;;;5058982;28;20284;-77
2022/04/29 03:23:22;;;;;;;11.45;7.72;;;;;;;;;;5059881;28;20025;-79
2022/04/29 03:25:47;;;;;;;12.60;8.32;;;;;;;;;;5060307;28;20394;-78
2022/04/29 03:28:12;;;;;;;12.30;7.63;;;;;;;;;;5060155;28;20397;-78
2022/04/29 03:30:38;;;;;;;12.18;7.47;;;;;;;;;;5059299;28;20028;-78
2022/04/29 03:33:05;;;;;;;12.93;7.28;;;;;;;;;;5058893;28;20060;-77
2022/04/29 03:35:31;;;;;;;9.90;7.10;;;;;;;;;;5058067;28;20024;-78
2022/04/29 03:37:56;;;;;;;10.73;6.95;;;;;;;;;;5059455;28;20025;-79
2022/04/29 03:40:23;;;;;;;12.80;7.13;;;;;;;;;;5058895;28;20028;-78
2022/04/29 03:42:50;;;;;;;11.13;7.38;;;;;;;;;;5057950;28;20029;-78
2022/04/29 03:45:16;;;;;;;11.35;7.40;;;;;;;;;;5059758;28;20020;-79
2022/04/29 03:47:42;;;;;;;11.13;6.68;;;;;;;;;;5059590;28;20029;-79
2022/04/29 03:50:08;;;;;;;10.57;6.88;;;;;;;;;;5059153;28;20036;-78
2022/04/29 03:52:33;;;;;;;10.32;7.20;;;;;;;;;;5059353;28;20470;-78
2022/04/29 03:54:58;;;;;;;11.85;6.97;;;;;;;;;;5057897;28;20120;-79
2022/04/29 03:57:24;;;;;;;12.73;7.47;;;;;;;;;;5058838;28;20013;-78
2022/04/29 03:59:49;;;;;;;9.52;6.78;;;;;;;;;;5057004;28;20507;-79
2022/04/29 04:02:15;;;;;;;12.57;6.43;;;;;;;;;;5057107;28;20037;-77
2022/04/29 04:04:40;;;;;;;10.00;6.95;;;;;;;;;;5057204;28;20524;-79
2022/04/29 04:07:06;;;;;;;14.70;7.38;;;;;;;;;;5058922;28;20029;-79
2022/04/29 04:09:31;;;;;;;13.00;7.50;;;;;;;;;;5055975;28;20080;-77
2022/04/29 04:11:56;;;;;;;11.20;7.13;;;;;;;;;;5056531;28;20021;-78
2022/04/29 04:14:21;;;;;;;15.70;6.97;;;;;;;;;;5056027;28;20075;-77
2022/04/29 04:16:47;;;;;;;11.88;7.30;;;;;;;;;;5057993;28;20266;-78
2022/04/29 04:19:13;;;;;;;9.93;6.60;;;;;;;;;;5058639;28;20020;-78
2022/04/29 04:21:39;;;;;;;11.43;7.03;;;;;;;;;;5056546;28;20045;-79
2022/04/29 04:24:05;;;;;;;12.35;7.93;;;;;;;;;;5059037;28;20025;-78
2022/04/29 04:26:31;;;;;;;13.48;7.18;;;;;;;;;;5057576;28;20021;-78
2022/04/29 04:28:57;;;;;;;13.27;7.05;;;;;;;;;;5058240;28;20029;-79
2022/04/29 04:31:24;;;;;;;15.70;6.97;;;;;;;;;;5058912;28;20152;-79
2022/04/29 04:33:49;;;;;;;11.75;7.32;;;;;;;;;;5057216;28;20044;-79
2022/04/29 04:36:14;;;;;;;10.93;6.50;;;;;;;;;;5058913;28;20405;-79
2022/04/29 04:38:39;;;;;;;12.23;6.40;;;;;;;;;;5059658;28;20061;-79
2022/04/29 04:41:07;;;;;;;13.18;6.63;;;;;;;;;;5057517;28;20258;-79
2022/04/29 04:43:32;;;;;;;10.00;6.78;;;;;;;;;;5058848;28;20028;-79
2022/04/29 04:45:58;;;;;;;15.07;6.70;;;;;;;;;;5059017;28;20029;-79
2022/04/29 04:48:23;;;;;;;15.23;6.87;;;;;;;;;;5057514;28;20431;-79
2022/04/29 04:50:48;;;;;;;8.95;6.20;;;;;;;;;;5057845;28;20683;-79
2022/04/29 04:53:13;;;;;;;11.88;5.82;;;;;;;;;;5057722;28;20029;-79
2022/04/29 04:55:39;;;;;;;9.38;5.93;;;;;;;;;;5058949;28;20025;-79
2022/04/29 04:58:05;;;;;;;8.60;5.80;;;;;;;;;;5057350;28;20021;-79
2022/04/29 05:00:30;;;;;;;12.15;6.15;;;;;;;;;;5058734;28;20024;-78
2022/04/29 05:02:55;;;;;;;10.38;5.95;;;;;;;;;;5058366;28;20086;-78
2022/04/29 05:05:21;;;;;;;9.38;6.13;;;;;;;;;;5057964;28;20075;-78
2022/04/29 05:07:46;;;;;;;10.60;5.80;;;;;;;;;;5057860;28;20020;-78
2022/04/29 05:10:12;;;;;;;9.10;6.00;;;;;;;;;;5055148;28;20487;-78
2022/04/29 05:12:42;;;;;;;11.77;6.45;;;;;;;;;;5055381;28;20390;-78
2022/04/29 05:15:08;;;;;;;13.10;6.55;;;;;;;;;;5054123;28;20029;-78
2022/04/29 05:17:33;;;;;;;10.95;5.65;;;;;;;;;;5055878;28;20032;-79
2022/04/29 05:19:58;;;;;;;13.07;5.80;;;;;;;;;;5056389;28;20044;-78
2022/04/29 05:22:24;;;;;;;18.00;5.63;;;;;;;;;;5055779;28;20497;-77
2022/04/29 05:24:49;;;;;;;9.65;6.30;;;;;;;;;;5054778;28;20763;-78
2022/04/29 05:27:14;;;;;;;8.07;5.80;;;;;;;;;;5055402;28;20082;-78
2022/04/29 05:29:40;;;;;;;9.75;6.22;;;;;;;;;;5055238;28;20482;-78
2022/04/29 05:32:07;;;;;;;11.80;6.00;;;;;;;;;;5055339;28;20028;-78
2022/04/29 05:34:33;;;;;;;10.75;5.95;;;;;;;;;;5054916;28;20032;-78
2022/04/29 05:36:59;;;;;;;8.68;5.80;;;;;;;;;;5055271;28;20522;-78
2022/04/29 05:42:14;;;;;;;8.85;6.10;;;;;;;;;;5055224;28;20394;-78
2022/04/29 05:44:40;;;;;;;8.82;6.07;;;;;;;;;;5054952;28;20029;-78
2022/04/29 05:47:06;;;;;;;8.13;5.82;;;;;;;;;;5054209;28;20096;-77
2022/04/29 05:49:31;;;;;;;11.30;5.80;;;;;;;;;;5053456;28;20155;-78
2022/04/29 05:51:58;;;;;;;11.40;6.50;;;;;;;;;;5055625;28;20066;-78
2022/04/29 05:54:24;;;;;;;9.73;6.68;;;;;;;;;;5056214;28;20592;-78
2022/04/29 05:56:49;;;;;;;9.80;6.55;;;;;;;;;;5057149;28;20025;-78
2022/04/29 05:59:14;;;;;;;9.90;6.13;;;;;;;;;;5056921;28;20474;-78
2022/04/29 06:01:40;;;;;;;9.10;6.47;;;;;;;;;;5057175;28;20715;-78
2022/04/29 06:04:05;;;;;;;10.38;6.22;;;;;;;;;;5055579;28;20739;-78
2022/04/29 06:06:31;;;;;;;10.30;6.33;;;;;;;;;;5057113;28;20057;-78
2022/04/29 06:08:57;;;;;;;11.70;6.43;;;;;;;;;;5056984;28;20290;-78
2022/04/29 06:11:22;;;;;;;9.07;5.97;;;;;;;;;;5057448;28;20051;-78
2022/04/29 06:13:48;;;;;;;9.35;6.55;;;;;;;;;;5056149;28;20257;-78
2022/04/29 06:16:13;;;;;;;11.70;6.43;;;;;;;;;;5056648;28;20039;-78
2022/04/29 06:18:39;;;;;;;15.13;5.97;;;;;;;;;;5056981;28;20029;-78
2022/04/29 06:21:04;;;;;;;11.50;6.97;;;;;;;;;;5055316;28;20028;-78
2022/04/29 06:23:29;;;;;;;10.57;6.53;;;;;;;;;;5054470;28;20266;-78
2022/04/29 06:25:55;;;;;;;15.65;6.68;;;;;;;;;;5055050;28;20017;-78
2022/04/29 06:28:20;;;;;;;8.73;6.13;;;;;;;;;;5055427;28;20424;-78
2022/04/29 06:30:45;;;;;;;9.00;6.57;;;;;;;;;;5055083;28;20028;-79
2022/04/29 06:33:11;;;;;;;10.13;6.22;;;;;;;;;;5055952;28;20108;-78
2022/04/29 06:35:42;;;;;;;8.97;6.00;;;;;;;;;;5053652;28;20055;-77
2022/04/29 06:38:08;;;;;;;11.90;6.55;;;;;;;;;;5055725;28;20258;-78
2022/04/29 06:40:33;;;;;;;9.10;6.40;;;;;;;;;;5054826;28;20017;-78
2022/04/29 06:42:58;;;;;;;9.10;6.17;;;;;;;;;;5056484;28;20028;-78
2022/04/29 06:45:23;;;;;;;9.93;6.27;;;;;;;;;;5056095;28;20258;-78
2022/04/29 06:47:48;;;;;;;9.30;6.13;;;;;;;;;;5054197;28;20261;-79
2022/04/29 06:50:14;;;;;;;11.00;6.50;;;;;;;;;;5053763;28;20025;-78
2022/04/29 06:52:39;;;;;;;9.93;5.75;;;;;;;;;;5053623;28;20250;-78
2022/04/29 06:55:05;;;;;;;10.00;6.43;;;;;;;;;;5054473;28;20021;-78
2022/04/29 06:57:30;;;;;;;8.85;6.30;;;;;;;;;;5053337;28;20036;-77
2022/04/29 06:59:56;;;;;;;12.30;7.28;;;;;;;;;;5053052;28;20048;-78
2022/04/29 07:02:21;;;;;;;9.18;6.85;;;;;;;;;;5054161;28;20044;-78
2022/04/29 07:04:47;;;;;;;10.13;6.53;;;;;;;;;;5054406;28;20433;-78
2022/04/29 07:07:12;;;;;;;11.27;6.47;;;;;;;;;;5056914;28;20028;-80
2022/04/29 07:09:40;;;;;;;10.95;6.85;;;;;;;;;;5053912;28;20257;-77
2022/04/29 07:12:07;;;;;;;17.92;6.68;;;;;;;;;;5055981;28;20025;-78
2022/04/29 07:14:33;;;;;;;16.00;6.38;;;;;;;;;;5053940;28;20041;-79
2022/04/29 07:16:58;;;;;;;13.07;6.95;;;;;;;;;;5055183;28;20024;-79
2022/04/29 07:19:24;;;;;;;9.30;6.37;;;;;;;;;;5054398;28;20375;-78
2022/04/29 07:21:49;;;;;;;11.73;7.13;;;;;;;;;;5053456;28;20789;-77
2022/04/29 07:24:14;;;;;;;11.68;7.45;;;;;;;;;;5054164;28;20685;-78
2022/04/29 07:26:40;;;;;;;11.90;7.00;;;;;;;;;;5055099;28;20060;-79
2022/04/29 07:29:06;;;;;;;12.70;6.55;;;;;;;;;;5052651;28;20258;-78
2022/04/29 07:31:32;;;;;;;14.10;7.07;;;;;;;;;;5053147;28;20017;-78
2022/04/29 07:33:57;;;;;;;20.73;7.30;;;;;;;;;;5057296;28;20100;-78
2022/04/29 07:41:44;;;;;;;11.85;6.85;;;;;;;;;;5058706;28;20253;-79
2022/04/29 07:42:07;;;;;;;10.98;7.05;;;;;;;;;;5058585;28;20024;-80
2022/04/29 07:44:33;;;;;;;9.77;6.55;;;;;;;;;;5057125;28;20087;-78
2022/04/29 07:46:59;;;;;;;10.32;6.68;;;;;;;;;;5055785;28;20033;-78
2022/04/29 07:49:25;;;;;;;10.32;6.65;;;;;;;;;;5059210;28;20096;-78
2022/04/29 07:51:50;;;;;;;12.20;6.43;;;;;;;;;;5059540;28;20036;-79
2022/04/29 07:54:15;;;;;;;9.95;6.50;;;;;;;;;;5059571;28;20028;-79
2022/04/29 07:56:41;;;;;;;9.05;6.90;;;;;;;;;;5060445;28;20024;-80
2022/04/29 07:59:06;;;;;;;10.35;6.32;;;;;;;;;;5059774;28;20025;-79
2022/04/29 08:01:33;;;;;;;11.20;6.38;;;;;;;;;;5059429;28;20061;-79
2022/04/29 08:03:59;;;;;;;10.63;6.18;;;;;;;;;;5057444;28;20032;-79
2022/04/29 08:06:26;;;;;;;8.85;5.97;;;;;;;;;;5059627;28;20025;-79
2022/04/29 08:08:51;;;;;;;12.18;6.60;;;;;;;;;;5059059;28;20486;-79
2022/04/29 08:11:17;;;;;;;13.80;7.80;;;;;;;;;;5059558;28;20063;-79
2022/04/29 08:13:44;;;;;;;13.07;6.45;;;;;;;;;;5057625;28;20270;-79
2022/04/29 08:16:10;;;;;;;10.00;6.53;;;;;;;;;;5059342;28;20028;-80
2022/04/29 08:18:35;;;;;;;11.25;7.03;;;;;;;;;;5057732;28;20470;-79
2022/04/29 08:21:00;;;;;;;12.90;6.73;;;;;;;;;;5059710;28;20075;-80
2022/04/29 08:23:26;;;;;;;10.30;6.17;;;;;;;;;;5060065;28;20720;-79
2022/04/29 08:25:51;;;;;;;9.68;6.10;;;;;;;;;;5058605;28;20365;-80
2022/04/29 08:28:16;;;;;;;8.38;6.13;;;;;;;;;;5056165;28;20118;-78
2022/04/29 08:30:42;;;;;;;9.07;5.85;;;;;;;;;;5056380;28;20025;-79
2022/04/29 08:33:12;;;;;;;10.43;5.13;;;;;;;;;;5058350;28;20021;-79
2022/04/29 08:35:37;;;;;;;12.68;5.72;;;;;;;;;;5058580;28;20108;-79
2022/04/29 08:38:02;;;;;;;8.10;5.65;;;;;;;;;;5058459;28;20113;-79
2022/04/29 08:40:27;;;;;;;9.90;5.45;;;;;;;;;;5056952;28;20082;-79
2022/04/29 08:42:55;;;;;;;10.10;5.50;;;;;;;;;;5058982;28;20367;-80
2022/04/29 08:45:21;;;;;;;10.90;5.47;;;;;;;;;;5057865;28;20124;-80
2022/04/29 08:47:47;;;;;;;10.38;5.97;;;;;;;;;;5058682;28;20025;-80
2022/04/29 08:50:18;;;;;;;9.32;5.70;;;;;;;;;;5057710;28;20028;-78
2022/04/29 08:52:44;;;;;;;9.18;4.80;;;;;;;;;;5058263;28;20025;-79
2022/04/29 09:00:44;;;;;;;10.07;5.40;;;;;;;;;;5057164;28;20083;-78
2022/04/29 09:03:18;;;;;;;12.75;5.78;;;;;;;;;;5056638;28;20070;-79
2022/04/29 09:05:44;;;;;;;10.10;5.60;;;;;;;;;;5056695;28;20060;-79
2022/04/29 09:08:14;;;;;;;9.05;5.25;;;;;;;;;;5058160;28;20029;-79
2022/04/29 09:10:58;;;;;;;14.07;5.50;;;;;;;;;;5058288;28;20089;-79
2022/04/29 09:13:28;;;;;;;9.98;4.93;;;;;;;;;;5057032;28;20032;-79
2022/04/29 09:15:59;;;;;;;6.95;4.90;;;;;;;;;;5058716;28;20017;-79
2022/04/29 09:18:37;;;;;;;7.13;4.60;;;;;;;;;;5057694;28;20025;-79
2022/04/29 09:21:09;;;;;;;10.77;4.47;;;;;;;;;;5057945;28;20040;-79
2022/04/29 09:23:37;;;;;;;8.00;4.10;;;;;;;;;;5057885;28;20482;-79
2022/04/29 09:26:05;;;;;;;10.18;4.13;;;;;;;;;;5057430;28;20362;-79
2022/04/29 09:28:34;;;;;;;10.10;4.20;;;;;;;;;;5057839;28;20025;-79
2022/04/29 09:31:01;;;;;;;8.02;3.92;;;;;;;;;;5057979;28;20035;-79
2022/04/29 09:33:26;;;;;;;7.78;3.70;;;;;;;;;;5056920;28;20516;-79
2022/04/29 09:35:53;;;;;;;7.22;3.88;;;;;;;;;;5057581;28;20017;-79
2022/04/29 09:41:03;;;;;;;14.40;4.18;;;;;;;;;;5057528;28;20047;-78
2022/04/29 09:43:37;;;;;;;9.35;4.22;;;;;;;;;;5056877;28;20024;-79
2022/04/29 09:46:12;;;;;;;5.47;3.20;;;;;;;;;;5058177;28;20478;-78
2022/04/29 09:48:54;;;;;;;10.65;3.67;;;;;;;;;;5055868;28;20035;-79
2022/04/29 09:51:38;;;;;;;8.77;3.20;;;;;;;;;;5057034;28;20020;-80
2022/04/29 09:54:12;;;;;;;11.10;3.92;;;;;;;;;;5057375;28;20075;-79
2022/04/29 09:56:37;;;;;;;8.10;4.00;;;;;;;;;;5054841;28;20024;-79
2022/04/29 09:59:04;;;;;;;9.18;3.70;;;;;;;;;;5056885;28;20017;-79
2022/04/29 10:01:29;;;;;;;10.05;3.60;;;;;;;;;;5056036;28;20063;-76
2022/04/29 10:03:55;;;;;;;8.05;3.80;;;;;;;;;;5054457;28;20024;-77
2022/04/29 10:06:23;;;;;;;17.08;3.40;;;;;;;;;;5055654;28;20116;-77
2022/04/29 10:08:50;;;;;;;12.25;3.90;;;;;;;;;;5053757;28;20162;-75
2022/04/29 10:11:17;;;;;;;6.55;3.10;;;;;;;;;;5053315;28;20154;-74
2022/04/29 10:13:44;;;;;;;9.77;3.90;;;;;;;;;;5053234;28;20067;-73
2022/04/29 10:16:11;;;;;;;5.22;3.40;;;;;;;;;;5052914;28;20025;-85
2022/04/29 10:21:25;;;;;;;8.30;3.50;;;;;;;;;;5053879;28;20032;-73
2022/04/29 10:23:51;;;;;;;8.00;3.38;;;;;;;;;;5053804;28;20389;-78
2022/04/29 10:26:19;;;;;;;5.60;3.22;;;;;;;;;;5053934;28;20052;-77
2022/04/29 10:28:45;;;;;;;7.88;3.20;;;;;;;;;;5054061;28;20031;-78
2022/04/29 10:31:18;;;;;;;6.78;3.40;;;;;;;;;;5052111;28;20460;-77
2022/04/29 10:33:44;;;;;;;10.10;3.72;;;;;;;;;;5053085;28;20083;-77
2022/04/29 10:36:10;;;;;;;8.25;3.40;;;;;;;;;;5053061;28;20033;-77
2022/04/29 10:38:39;;;;;;;10.70;2.88;;;;;;;;;;5052787;28;20021;-77
2022/04/29 10:41:26;;;;;;;6.03;2.88;;;;;;;;;;5053111;28;20070;-77
2022/04/29 10:43:51;;;;;;;6.70;2.80;;;;;;;;;;5052270;28;20094;-76
2022/04/29 10:46:29;;;;;;;8.97;3.30;;;;;;;;;;5052487;28;20475;-78
2022/04/29 10:48:55;;;;;;;5.47;3.00;;;;;;;;;;5052779;28;20253;-77
2022/04/29 10:51:41;;;;;;;8.18;3.20;;;;;;;;;;5053399;28;20025;-77
2022/04/29 10:54:06;;;;;;;8.85;3.10;;;;;;;;;;5053526;28;20075;-77
2022/04/29 10:56:32;;;;;;;9.25;3.05;;;;;;;;;;5052460;28;20390;-77
2022/04/29 10:59:12;;;;;;;9.70;3.57;;;;;;;;;;5052785;28;20123;-77
2022/04/29 11:01:50;;;;;;;8.35;4.03;;;;;;;;;;5053637;28;20258;-77
2022/04/29 11:04:15;;;;;;;6.55;3.72;;;;;;;;;;5053095;28;20025;-77
2022/04/29 11:06:44;;;;;;;10.43;3.70;;;;;;;;;;5051593;28;20033;-77
2022/04/29 11:09:44;;;;;;;6.95;3.60;;;;;;;;;;5056971;28;20257;-77
2022/04/29 11:12:30;;;;;;;4.88;3.13;;;;;;;;;;5051066;28;20479;-77
2022/04/29 11:15:08;;;;;;;6.05;3.67;;;;;;;;;;5055266;28;20127;-77
2022/04/29 11:17:34;;;;;;;8.48;3.75;;;;;;;;;;5056490;28;20021;-77
2022/04/29 11:20:22;;;;;;;9.35;3.67;;;;;;;;;;5056388;28;20031;-77
2022/04/29 11:25:53;;;;;;;7.95;3.53;;;;;;;;;;5056886;28;20075;-77
2022/04/29 11:28:19;;;;;;;5.50;3.53;;;;;;;;;;5056397;28;20028;-77
2022/04/29 11:30:47;;;;;;;5.97;3.25;;;;;;;;;;5060079;28;20028;-76
2022/04/29 11:33:12;;;;;;;5.10;3.33;;;;;;;;;;5060965;28;20097;-76
2022/04/29 11:35:37;;;;;;;9.52;3.75;;;;;;;;;;5060776;28;20021;-76
2022/04/29 11:38:03;;;;;;;6.85;3.83;;;;;;;;;;5060271;28;20107;-76
2022/04/29 11:40:28;;;;;;;11.25;4.30;;;;;;;;;;5060465;28;20033;-75
2022/04/29 11:42:54;;;;;;;8.15;4.00;;;;;;;;;;5060546;28;20028;-75
2022/04/29 11:45:22;;;;;;;9.82;3.90;;;;;;;;;;5059975;28;20077;-76
2022/04/29 11:47:47;;;;;;;6.72;3.90;;;;;;;;;;5060550;28;20029;-76
2022/04/29 11:50:12;;;;;;;5.20;3.63;;;;;;;;;;5060731;28;20043;-75
2022/04/29 11:52:39;;;;;;;7.07;4.20;;;;;;;;;;5060984;28;20284;-76
2022/04/29 11:55:06;;;;;;;8.00;3.70;;;;;;;;;;5060237;28;20031;-75
2022/04/29 11:57:43;;;;;;;22.00;4.45;;;;;;;;;;5059259;28;20029;-76
2022/04/29 12:00:09;;;;;;;9.82;3.78;;;;;;;;;;5060310;28;20025;-76
2022/04/29 12:02:34;;;;;;;4.60;3.58;;;;;;;;;;5059787;28;20025;-74
2022/04/29 12:05:05;;;;;;;6.60;3.85;;;;;;;;;;5059858;28;20363;-75
2022/04/29 12:07:42;;;;;;;12.23;4.00;;;;;;;;;;5059016;28;20116;-75
2022/04/29 12:10:16;;;;;;;8.73;3.60;;;;;;;;;;5059437;28;20020;-75
2022/04/29 12:12:41;;;;;;;9.98;3.60;;;;;;;;;;5057659;28;20032;-75
2022/04/29 12:15:09;;;;;;;8.45;3.85;;;;;;;;;;5058168;28;20024;-75
2022/04/29 12:17:38;;;;;;;6.53;4.03;;;;;;;;;;5059506;28;20536;-76
2022/04/29 12:20:07;;;;;;;9.93;4.25;;;;;;;;;;5058724;28;20048;-76
2022/04/29 12:22:36;;;;;;;11.00;3.83;;;;;;;;;;5059588;28;20501;-74
2022/04/29 12:25:29;;;;;;;7.53;4.07;;;;;;;;;;5059207;28;20037;-76
2022/04/29 12:28:22;;;;;;;9.13;3.85;;;;;;;;;;5055845;28;20033;-75
2022/04/29 12:37:04;;;;;;;9.98;4.32;;;;;;;;;;5059672;28;20047;-75
2022/04/29 12:39:37;;;;;;;6.22;4.15;;;;;;;;;;5059015;28;20107;-75
2022/04/29 12:42:06;;;;;;;8.52;4.00;;;;;;;;;;5058743;28;20108;-75
2022/04/29 12:47:42;;;;;;;9.30;3.75;;;;;;;;;;5058142;28;20534;-75
2022/04/29 12:50:28;;;;;;;9.35;4.32;;;;;;;;;;5059227;28;20032;-75
2022/04/29 12:53:00;;;;;;;8.15;3.95;;;;;;;;;;5058544;28;20490;-76
2022/04/29 12:55:35;;;;;;;7.35;4.28;;;;;;;;;;5057729;28;20039;-74
2022/04/29 12:58:10;;;;;;;6.90;4.00;;;;;;;;;;5058601;28;20458;-75
2022/04/29 13:00:40;;;;;;;7.32;4.25;;;;;;;;;;5057021;28;20033;-76
2022/04/29 13:03:08;;;;;;;7.30;3.65;;;;;;;;;;5058182;28;20075;-76
2022/04/29 13:05:34;;;;;;;9.98;3.67;;;;;;;;;;5058050;28;20025;-76
2022/04/29 13:08:00;;;;;;;9.25;4.88;;;;;;;;;;5057528;28;20052;-76
2022/04/29 13:10:25;;;;;;;9.30;4.28;;;;;;;;;;5057260;28;20028;-75
2022/04/29 13:12:51;;;;;;;8.32;4.43;;;;;;;;;;5057403;28;20021;-75
2022/04/29 13:15:16;;;;;;;4.65;3.50;;;;;;;;;;5056445;28;20052;-76
2022/04/29 13:17:42;;;;;;;8.07;4.18;;;;;;;;;;5057746;28;20096;-76
2022/04/29 13:20:08;;;;;;;11.88;4.53;;;;;;;;;;5058081;28;20544;-76
2022/04/29 13:22:34;;;;;;;9.60;5.03;;;;;;;;;;5056566;28;20017;-76
2022/04/29 13:25:00;;;;;;;9.57;4.93;;;;;;;;;;5057306;28;20017;-75
2022/04/29 13:27:25;;;;;;;6.78;4.22;;;;;;;;;;5058010;28;20043;-75
2022/04/29 13:29:50;;;;;;;8.45;4.45;;;;;;;;;;5057483;28;20120;-75
2022/04/29 13:32:15;;;;;;;9.45;4.35;;;;;;;;;;5059311;28;20031;-76
2022/04/29 13:34:41;;;;;;;8.23;4.22;;;;;;;;;;5056688;28;20020;-75
2022/04/29 13:37:06;;;;;;;8.87;4.20;;;;;;;;;;5058639;28;20489;-76
2022/04/29 13:39:32;;;;;;;7.82;3.85;;;;;;;;;;5055465;28;20280;-75
2022/04/29 13:41:58;;;;;;;6.35;3.72;;;;;;;;;;5057539;28;20031;-75
2022/04/29 13:44:23;;;;;;;8.27;3.55;;;;;;;;;;5058290;28;20032;-75
2022/04/29 13:46:48;;;;;;;7.63;3.85;;;;;;;;;;5057174;28;20024;-75
2022/04/29 13:49:14;;;;;;;6.63;3.70;;;;;;;;;;5057761;28;20110;-76
2022/04/29 13:51:39;;;;;;;8.40;3.53;;;;;;;;;;5056908;28;20056;-76
2022/04/29 13:54:04;;;;;;;6.80;3.33;;;;;;;;;;5057526;28;20021;-75
2022/04/29 13:56:29;;;;;;;9.57;3.50;;;;;;;;;;5057730;28;20262;-76
2022/04/29 13:58:56;;;;;;;8.23;3.50;;;;;;;;;;5055962;28;20020;-75
2022/04/29 14:01:21;;;;;;;6.25;3.45;;;;;;;;;;5057705;28;20254;-75
2022/04/29 14:03:47;;;;;;;5.53;3.50;;;;;;;;;;5056752;28;20088;-75
2022/04/29 14:06:13;;;;;;;10.98;3.85;;;;;;;;;;5057784;28;20032;-76
2022/04/29 14:08:38;;;;;;;10.80;3.53;;;;;;;;;;5056847;28;20021;-76
2022/04/29 14:11:03;;;;;;;9.52;3.60;;;;;;;;;;5056567;28;20058;-75
2022/04/29 14:13:29;;;;;;;8.23;3.50;;;;;;;;;;5055951;28;20025;-76
2022/04/29 14:15:54;;;;;;;8.30;3.40;;;;;;;;;;5056785;28;20360;-75
2022/04/29 14:18:20;;;;;;;6.73;3.50;;;;;;;;;;5057112;28;20040;-75
2022/04/29 14:20:45;;;;;;;8.73;3.50;;;;;;;;;;5057503;28;20317;-75
2022/04/29 14:23:11;;;;;;;4.43;3.38;;;;;;;;;;5055938;28;20021;-75
2022/04/29 14:25:36;;;;;;;5.15;3.15;;;;;;;;;;5057280;28;20363;-75
2022/04/29 14:28:02;;;;;;;6.82;3.50;;;;;;;;;;5056854;28;20037;-75
2022/04/29 14:30:27;;;;;;;7.35;2.97;;;;;;;;;;5056504;28;20021;-76
2022/04/29 14:32:54;;;;;;;5.80;3.03;;;;;;;;;;5054753;28;20036;-76
2022/04/29 14:35:19;;;;;;;6.45;3.75;;;;;;;;;;5056645;28;20497;-75
2022/04/29 14:37:45;;;;;;;7.82;3.78;;;;;;;;;;5055824;28;20021;-76
2022/04/29 14:40:10;;;;;;;6.25;3.30;;;;;;;;;;5056419;28;20478;-75
2022/04/29 14:42:36;;;;;;;7.00;3.45;;;;;;;;;;5055460;28;20079;-75
2022/04/29 14:45:03;;;;;;;8.25;3.88;;;;;;;;;;5056498;28;20028;-75
2022/04/29 14:47:29;;;;;;;6.35;4.15;;;;;;;;;;5055837;28;20025;-76
2022/04/29 14:49:55;;;;;;;9.48;3.90;;;;;;;;;;5056627;28;20371;-76
2022/04/29 14:52:20;;;;;;;9.27;3.50;;;;;;;;;;5056893;28;20025;-75
2022/04/29 14:54:46;;;;;;;7.63;3.40;;;;;;;;;;5056589;28;20254;-76
2022/04/29 14:57:12;;;;;;;5.00;3.60;;;;;;;;;;5054882;28;20732;-76
2022/04/29 14:59:37;;;;;;;8.63;3.80;;;;;;;;;;5056489;28;20056;-76
2022/04/29 15:02:02;;;;;;;6.03;3.57;;;;;;;;;;5055782;28;20028;-75
2022/04/29 15:04:28;;;;;;;10.52;3.70;;;;;;;;;;5056907;28;20284;-75
2022/04/29 15:06:53;;;;;;;5.03;3.42;;;;;;;;;;5056707;28;20127;-76